createdAt,value
2018-11-14T00:02:59.276Z,13.90
2018-11-14T00:08:02.472Z,13.80
2018-11-14T00:13:05.711Z,13.90
2018-11-14T00:18:08.944Z,13.40
2018-11-14T00:23:12.137Z,14.00
2018-11-14T00:28:15.520Z,13.80
2018-11-14T00:33:18.780Z,13.80
2018-11-14T00:38:21.987Z,13.80
2018-11-14T00:43:25.707Z,13.80
2018-11-14T00:48:28.949Z,13.80
2018-11-14T00:53:32.180Z,13.80
2018-11-14T00:58:35.442Z,13.70
2018-11-14T01:03:38.671Z,14.00
2018-11-14T01:08:41.881Z,13.70
2018-11-14T01:13:45.092Z,13.70
2018-11-14T01:18:48.283Z,13.90
2018-11-14T01:23:51.468Z,13.90
2018-11-14T01:28:54.709Z,13.80
2018-11-14T01:33:57.879Z,13.70
2018-11-14T01:39:01.093Z,13.80
2018-11-14T01:44:04.304Z,13.90
2018-11-14T01:49:08.527Z,14.00
2018-11-14T01:54:11.749Z,13.60
2018-11-14T01:59:14.960Z,13.80
2018-11-14T02:04:18.201Z,13.70
2018-11-14T02:09:21.417Z,13.90
2018-11-14T02:14:24.664Z,13.60
2018-11-14T02:19:27.932Z,13.80
2018-11-14T02:24:31.587Z,13.60
2018-11-14T02:29:34.808Z,13.90
2018-11-14T02:34:38.005Z,13.70
2018-11-14T02:39:41.227Z,13.70
2018-11-14T02:44:44.464Z,13.60
2018-11-14T02:49:47.701Z,13.60
2018-11-14T02:54:50.977Z,13.60
2018-11-14T02:59:54.555Z,13.60
2018-11-14T03:04:57.788Z,13.40
2018-11-14T03:10:01.036Z,13.80
2018-11-14T03:15:05.712Z,13.40
2018-11-14T03:20:11.144Z,13.50
2018-11-14T03:25:14.812Z,13.40
2018-11-14T03:30:18.526Z,13.30
2018-11-14T03:35:21.792Z,13.50
2018-11-14T03:40:25.008Z,13.40
2018-11-14T03:45:28.235Z,13.50
2018-11-14T03:50:31.492Z,13.20
2018-11-14T03:55:34.840Z,13.60
2018-11-14T04:00:38.063Z,13.30
2018-11-14T04:05:41.308Z,13.50
2018-11-14T04:10:44.516Z,13.60
2018-11-14T04:15:47.716Z,13.40
2018-11-14T04:20:50.928Z,13.40
2018-11-14T04:25:54.141Z,13.50
2018-11-14T04:30:57.371Z,13.30
2018-11-14T04:36:00.657Z,13.50
2018-11-14T04:41:03.864Z,13.30
2018-11-14T04:46:07.111Z,13.30
2018-11-14T04:51:10.325Z,13.30
2018-11-14T04:56:13.543Z,13.40
2018-11-14T05:01:16.764Z,13.40
2018-11-14T05:06:19.985Z,13.40
2018-11-14T05:11:23.221Z,13.40
2018-11-14T05:16:26.436Z,13.50
2018-11-14T05:21:29.803Z,13.30
2018-11-14T05:26:33.042Z,13.30
2018-11-14T05:31:36.278Z,13.30
2018-11-14T05:36:39.529Z,13.40
2018-11-14T05:41:42.784Z,13.40
2018-11-14T05:46:46.020Z,13.20
2018-11-14T05:51:49.272Z,13.40
2018-11-14T05:56:52.484Z,13.20
2018-11-14T06:01:55.704Z,13.30
2018-11-14T06:06:58.925Z,13.30
2018-11-14T06:12:02.175Z,13.30
2018-11-14T06:17:05.393Z,13.30
2018-11-14T06:22:08.656Z,13.30
2018-11-14T06:27:11.836Z,13.30
2018-11-14T06:32:15.086Z,13.00
2018-11-14T06:37:18.312Z,13.40
2018-11-14T06:42:21.533Z,13.10
2018-11-14T06:47:24.772Z,13.30
2018-11-14T06:52:27.988Z,12.90
2018-11-14T06:57:31.196Z,13.00
2018-11-14T07:02:38.336Z,13.20
2018-11-14T07:12:47.237Z,13.00
2018-11-14T07:17:51.360Z,13.00
2018-11-14T07:22:54.532Z,12.90
2018-11-14T07:27:57.766Z,13.00
2018-11-14T07:33:03.132Z,13.00
2018-11-14T07:38:39.487Z,13.00
2018-11-14T07:43:43.215Z,12.90
2018-11-14T07:48:47.421Z,13.00
2018-11-14T07:53:50.872Z,13.10
2018-11-14T07:58:54.123Z,12.90
2018-11-14T08:03:57.304Z,12.90
2018-11-14T08:09:00.516Z,13.20
2018-11-14T08:14:03.712Z,12.90
2018-11-14T08:19:06.908Z,13.00
2018-11-14T08:24:10.184Z,13.00
2018-11-14T08:29:13.380Z,13.00
2018-11-14T08:34:16.569Z,12.90
2018-11-14T08:39:19.818Z,13.10
2018-11-14T08:44:23.017Z,12.90
2018-11-14T08:49:26.233Z,13.00
2018-11-14T08:54:29.420Z,12.90
2018-11-14T08:59:32.616Z,13.10
2018-11-14T09:04:35.809Z,13.00
2018-11-14T09:09:39.020Z,13.20
2018-11-14T09:14:42.300Z,13.10
2018-11-14T09:19:45.444Z,12.90
2018-11-14T09:24:48.710Z,13.00
2018-11-14T09:29:51.843Z,13.10
2018-11-14T09:34:55.024Z,13.10
2018-11-14T09:39:58.216Z,13.00
2018-11-14T09:45:01.416Z,13.50
2018-11-14T09:50:05.584Z,13.00
2018-11-14T09:55:09.543Z,13.30
2018-11-14T10:00:17.086Z,12.90
2018-11-14T10:05:21.589Z,13.40
2018-11-14T10:10:24.828Z,13.20
2018-11-14T10:15:28.125Z,13.40
2018-11-14T10:20:31.256Z,13.30
2018-11-14T10:25:34.481Z,13.30
2018-11-14T10:30:37.680Z,13.30
2018-11-14T10:35:40.904Z,13.40
2018-11-14T10:40:44.103Z,13.40
2018-11-14T10:45:47.292Z,13.60
2018-11-14T10:50:50.516Z,13.70
2018-11-14T10:55:53.712Z,13.90
2018-11-14T11:01:02.297Z,13.90
2018-11-14T11:06:10.888Z,13.80
2018-11-14T11:11:17.676Z,13.80
2018-11-14T11:16:26.216Z,13.80
2018-11-14T11:21:29.408Z,13.90
2018-11-14T11:26:32.625Z,13.90
2018-11-14T11:31:35.828Z,14.40
2018-11-14T11:36:39.335Z,14.30
2018-11-14T11:41:43.184Z,14.40
2018-11-14T11:46:46.381Z,14.30
2018-11-14T11:51:49.604Z,14.20
2018-11-14T11:56:52.813Z,14.20
2018-11-14T12:01:56.032Z,14.40
2018-11-14T12:06:59.231Z,14.20
2018-11-14T12:12:02.717Z,14.30
2018-11-14T12:17:06.034Z,14.10
2018-11-14T12:22:09.247Z,14.10
2018-11-14T12:27:12.487Z,14.20
2018-11-14T12:32:15.825Z,14.10
2018-11-14T12:37:19.044Z,14.20
2018-11-14T12:42:22.240Z,14.40
2018-11-14T12:47:25.437Z,14.40
2018-11-14T12:52:28.701Z,14.20
2018-11-14T12:57:32.323Z,14.50
2018-11-14T13:02:35.540Z,14.10
2018-11-14T13:07:38.868Z,14.20
2018-11-14T13:12:42.496Z,14.20
2018-11-14T13:17:45.736Z,14.40
2018-11-14T13:22:49.301Z,14.10
2018-11-14T13:27:52.526Z,14.10
2018-11-14T13:32:55.735Z,14.10
2018-11-14T13:37:58.948Z,14.20
2018-11-14T13:43:02.187Z,14.10
2018-11-14T13:48:05.696Z,14.20
2018-11-14T13:53:08.896Z,14.20
2018-11-14T13:58:12.124Z,14.10
2018-11-14T14:03:15.336Z,14.20
2018-11-14T14:08:18.556Z,14.10
2018-11-14T14:13:21.789Z,13.90
2018-11-14T14:18:25.037Z,14.20
2018-11-14T14:23:28.258Z,14.30
2018-11-14T14:28:31.469Z,14.10
2018-11-14T14:33:34.673Z,14.40
2018-11-14T14:38:37.919Z,14.30
2018-11-14T14:43:41.113Z,14.20
2018-11-14T14:48:44.362Z,14.10
2018-11-14T14:53:47.549Z,14.30
2018-11-14T14:58:50.829Z,14.20
2018-11-14T15:03:54.043Z,14.10
2018-11-14T15:08:57.237Z,14.30
2018-11-14T15:14:00.464Z,14.20
2018-11-14T15:19:03.807Z,14.10
2018-11-14T15:24:07.020Z,14.10
2018-11-14T15:29:10.228Z,14.20
2018-11-14T15:34:13.563Z,14.10
2018-11-14T15:39:16.776Z,13.70
2018-11-14T15:44:20.001Z,13.80
2018-11-14T15:49:23.205Z,13.90
2018-11-14T15:54:26.447Z,13.80
2018-11-14T15:59:29.662Z,13.80
2018-11-14T16:04:32.904Z,13.90
2018-11-14T16:09:36.171Z,14.00
2018-11-14T16:14:39.396Z,13.90
2018-11-14T16:19:42.627Z,13.80
2018-11-14T16:24:45.918Z,13.80
2018-11-14T16:29:49.080Z,13.80
2018-11-14T16:34:52.292Z,13.70
2018-11-14T16:39:55.516Z,13.60
2018-11-14T16:44:58.716Z,13.70
2018-11-14T16:50:01.934Z,13.80
2018-11-14T16:55:06.013Z,13.60
2018-11-14T17:00:12.131Z,13.30
2018-11-14T17:05:16.749Z,13.60
2018-11-14T17:10:20.984Z,13.70
2018-11-14T17:15:25.235Z,13.60
2018-11-14T17:20:28.524Z,13.70
2018-11-14T17:25:31.852Z,13.50
2018-11-14T17:30:35.132Z,13.20
2018-11-14T17:35:38.335Z,13.50
2018-11-14T17:40:41.717Z,13.30
2018-11-14T17:45:44.896Z,13.50
2018-11-14T17:50:50.544Z,13.30
2018-11-14T17:55:53.928Z,13.40
2018-11-14T18:00:57.163Z,13.40
2018-11-14T18:06:00.341Z,13.20
2018-11-14T18:11:03.838Z,13.40
2018-11-14T18:16:07.064Z,13.30
2018-11-14T18:21:10.299Z,13.30
2018-11-14T18:26:13.509Z,13.30
2018-11-14T18:31:16.696Z,13.30
2018-11-14T18:36:19.973Z,13.30
2018-11-14T18:41:23.352Z,13.20
2018-11-14T18:46:26.533Z,13.40
2018-11-14T18:51:30.920Z,13.30
2018-11-14T18:56:34.159Z,12.90
2018-11-14T19:01:37.363Z,13.30
2018-11-14T19:06:40.603Z,12.80
2018-11-14T19:11:45.041Z,13.10
2018-11-14T19:16:48.254Z,13.30
2018-11-14T19:21:51.458Z,12.90
2018-11-14T19:26:54.673Z,13.20
2018-11-14T19:31:57.904Z,12.80
2018-11-14T19:37:01.033Z,13.00
2018-11-14T19:42:04.408Z,12.80
2018-11-14T19:47:07.589Z,13.20
2018-11-14T19:52:10.776Z,12.90
2018-11-14T19:57:14.022Z,12.90
2018-11-14T20:02:17.339Z,12.90
2018-11-14T20:07:20.428Z,12.80
2018-11-14T20:12:23.641Z,13.10
2018-11-14T20:17:26.877Z,12.90
2018-11-14T20:22:30.117Z,12.90
2018-11-14T20:27:33.460Z,13.00
2018-11-14T20:32:36.705Z,13.00
2018-11-14T20:37:40.096Z,13.00
2018-11-14T20:42:43.604Z,13.00
2018-11-14T20:47:46.755Z,12.80
2018-11-14T20:52:51.576Z,12.90
2018-11-14T20:57:54.792Z,12.80
2018-11-14T21:02:58.095Z,12.90
2018-11-14T21:08:01.254Z,12.90
2018-11-14T21:13:05.152Z,12.90
2018-11-14T21:18:08.688Z,12.90
2018-11-14T21:23:18.677Z,12.80
2018-11-14T21:28:21.864Z,12.80
2018-11-14T21:33:25.060Z,12.50
2018-11-14T21:38:28.285Z,12.50
2018-11-14T21:43:31.550Z,12.70
2018-11-14T21:48:34.693Z,12.60
2018-11-14T21:53:37.892Z,13.00
2018-11-14T21:58:41.100Z,12.50
2018-11-14T22:03:44.340Z,12.60
2018-11-14T22:08:47.576Z,12.90
2018-11-14T22:13:50.804Z,12.60
2018-11-14T22:18:54.001Z,12.60
2018-11-14T22:23:57.214Z,12.60
2018-11-14T22:29:01.005Z,12.70
2018-11-14T22:34:04.216Z,12.50
2018-11-14T22:39:08.709Z,12.50
2018-11-14T22:44:11.905Z,12.50
2018-11-14T22:49:15.124Z,12.60
2018-11-14T22:54:18.345Z,12.60
2018-11-14T22:59:21.548Z,12.50
2018-11-14T23:04:24.761Z,12.40
2018-11-14T23:09:27.952Z,12.40
2018-11-14T23:14:31.172Z,12.60
2018-11-14T23:19:34.376Z,12.50
2018-11-14T23:24:37.566Z,12.20
2018-11-14T23:29:40.771Z,12.40
2018-11-14T23:34:49.468Z,12.00
2018-11-14T23:39:52.695Z,12.00
2018-11-14T23:44:56.007Z,12.30
2018-11-14T23:49:59.189Z,12.00
2018-11-14T23:55:02.392Z,12.20
